地図

経路データ

SID SEASON NUMBER BASIN SUBBASIN NAME ISO_TIME NATURE LAT LON WMO_WIND WMO_PRES WMO_AGENCY TRACK_TYPE DIST2LAND LANDFALL IFLAG USA_AGENCY USA_ATCF_ID USA_LAT USA_LON USA_RECORD USA_STATUS USA_WIND USA_PRES USA_SSHS USA_R34_NE USA_R34_SE USA_R34_SW USA_R34_NW USA_R50_NE USA_R50_SE USA_R50_SW USA_R50_NW USA_R64_NE USA_R64_SE USA_R64_SW USA_R64_NW USA_POCI USA_ROCI USA_RMW USA_EYE TOKYO_LAT TOKYO_LON TOKYO_GRADE TOKYO_WIND TOKYO_PRES TOKYO_R50_DIR TOKYO_R50_LONG TOKYO_R50_SHORT TOKYO_R30_DIR TOKYO_R30_LONG TOKYO_R30_SHORT TOKYO_LAND CMA_LAT CMA_LON CMA_CAT CMA_WIND CMA_PRES HKO_LAT HKO_LON HKO_CAT HKO_WIND HKO_PRES NEWDELHI_LAT NEWDELHI_LON NEWDELHI_GRADE NEWDELHI_WIND NEWDELHI_PRES NEWDELHI_CI NEWDELHI_DP NEWDELHI_POCI REUNION_LAT REUNION_LON REUNION_TYPE REUNION_WIND REUNION_PRES REUNION_TNUM REUNION_CI REUNION_RMW REUNION_R34_NE REUNION_R34_SE REUNION_R34_SW REUNION_R34_NW REUNION_R50_NE REUNION_R50_SE REUNION_R50_SW REUNION_R50_NW REUNION_R64_NE REUNION_R64_SE REUNION_R64_SW REUNION_R64_NW BOM_LAT BOM_LON BOM_TYPE BOM_WIND BOM_PRES BOM_TNUM BOM_CI BOM_RMW BOM_R34_NE BOM_R34_SE BOM_R34_SW BOM_R34_NW BOM_R50_NE BOM_R50_SE BOM_R50_SW BOM_R50_NW BOM_R64_NE BOM_R64_SE BOM_R64_SW BOM_R64_NW BOM_ROCI BOM_POCI BOM_EYE BOM_POS_METHOD BOM_PRES_METHOD NADI_LAT NADI_LON NADI_CAT NADI_WIND NADI_PRES WELLINGTON_LAT WELLINGTON_LON WELLINGTON_WIND WELLINGTON_PRES DS824_LAT DS824_LON DS824_STAGE DS824_WIND DS824_PRES TD9636_LAT TD9636_LON TD9636_STAGE TD9636_WIND TD9636_PRES TD9635_LAT TD9635_LON TD9635_WIND TD9635_PRES TD9635_ROCI NEUMANN_LAT NEUMANN_LON NEUMANN_CLASS NEUMANN_WIND NEUMANN_PRES MLC_LAT MLC_LON MLC_CLASS MLC_WIND MLC_PRES USA_GUST BOM_GUST BOM_GUST_PER REUNION_GUST REUNION_GUST_PER USA_SEAHGT USA_SEARAD_NE USA_SEARAD_SE USA_SEARAD_SW USA_SEARAD_NW STORM_SPEED STORM_DIR
1963128S24158 1963 43 SP EA NOT_NAMED 1963-05-08 11:00:00 NR -24.0000 158.000 1005 bom main 478 478 ______O___O___ -1 -24.0000 158.000 1005 -24.0000 158.000 1 30 8 55
1963128S24158 1963 43 SP EA NOT_NAMED 1963-05-08 12:00:00 TS -23.9252 158.111 main 491 491 O_____P__OP_O_ jtwc_sh SH521963 -23.9000 158.100 30 -1 -23.9268 158.104 1004 -23.9000 158.100 TC 20 1005 -23.9240 158.089 1 30 -24.0000 158.200 TC 20 1005 7 53
1963128S24158 1963 43 SP EA NOT_NAMED 1963-05-08 15:00:00 TS -23.7164 158.411 main 526 526 P_____P__PP_P_ SH521963 -23.6926 158.403 32 -1 -23.7098 158.416 1004 -23.7128 158.419 TC 21 1004 -23.6996 158.361 1 31 -23.8025 158.488 TC 22 1004 7 54
1963128S24158 1963 43 SP EA NOT_NAMED 1963-05-08 18:00:00 TS -23.5180 158.718 main 562 562 O_____P__PP_O_ jtwc_sh SH521963 -23.5000 158.700 35 0 -23.5026 158.736 1003 -23.5303 158.741 TC 22 1003 -23.4894 158.649 1 33 -23.6000 158.800 TC 25 1003 7 57
1963128S24158 1963 43 SP EA NOT_NAMED 1963-05-08 21:00:00 TS -23.3395 159.039 main 598 592 P_____P__PP_P_ SH521963 -23.3349 158.992 35 0 -23.3129 159.068 1002 -23.3576 159.067 TC 23 1002 -23.3043 158.966 1 34 -23.3925 159.150 TC 25 1002 7 60
1963128S24158 1963 43 SP EA NOT_NAMED 1963-05-08 23:00:00 TS -23.2325 159.260 1002 bom main 583 575 P_____O__PO_P_ SH521963 -23.2416 159.194 35 0 -23.2000 159.300 1002 -23.2505 159.288 TC 24 1002 -23.2000 159.200 2 36 -23.2610 159.386 TC 25 1002 7 63
1963128S24158 1963 43 SP EA NOT_NAMED 1963-05-09 00:00:00 TS -23.1838 159.374 main 575 543 O_____P__OP_O_ jtwc_sh SH521963 -23.2000 159.300 35 0 -23.1483 159.419 1002 -23.2000 159.400 TC 25 1002 -23.1546 159.325 2 34 -23.2000 159.500 TC 25 1002 7 67
1963128S24158 1963 43 SP EA NOT_NAMED 1963-05-09 03:00:00 TS -23.0553 159.720 main 543 511 P_____P__PP_P_ SH521963 -23.0925 159.642 27 -1 -23.0099 159.782 1002 -23.0607 159.740 TC 25 1002 -23.0411 159.716 2 29 -23.0349 159.800 TC 25 1002 7 69
1963128S24158 1963 43 SP MM NOT_NAMED 1963-05-09 06:00:00 TS -22.9455 160.066 main 496 472 O_____P__PP_O_ jtwc_sh SH521963 -23.0000 160.000 20 -1 -22.8888 160.130 1002 -22.9352 160.067 TC 25 1002 -22.9489 160.099 2 23 -22.9000 160.100 TC 25 1002 7 72
1963128S24158 1963 43 SP MM NOT_NAMED 1963-05-09 09:00:00 TS -22.8450 160.413 main 465 449 P_____P__PP_P_ SH521963 -22.9076 160.387 17 -1 -22.7757 160.435 1002 -22.8170 160.361 TC 25 1002 -22.8622 160.430 2 18 -22.8002 160.480 TC 25 1002 6 71
1963128S24158 1963 43 SP MM NOT_NAMED 1963-05-09 11:00:00 TS -22.7757 160.610 1002 bom main 449 434 P_____O__PO_P_ SH521963 -22.8391 160.612 15 -1 -22.7000 160.600 1002 -22.7393 160.528 TC 25 1002 -22.8000 160.600 1 15 -22.7365 160.709 TC 25 1002 6 67
1963128S24158 1963 43 SP MM NOT_NAMED 1963-05-09 12:00:00 TS -22.7354 160.689 main 434 419 O_____P__OP_O_ jtwc_sh SH521963 -22.8000 160.700 15 -1 -22.6545 160.666 1001 -22.7000 160.600 TC 25 1002 -22.7578 160.668 1 15 -22.7000 160.800 TC 25 1002 4 49
1963128S24158 1963 43 SP MM NOT_NAMED 1963-05-09 15:00:00 TS -22.5929 160.841 main 419 404 P_____P__PP_P_ SH521963 -22.6499 160.860 17 -1 -22.5166 160.815 1001 -22.5666 160.765 TC 26 1001 -22.6243 160.810 1 18 -22.5499 160.937 TC 25 1001 4 35
1963128S24158 1963 43 SP MM NOT_NAMED 1963-05-09 18:00:00 TS -22.4515 160.908 main 404 391 O_____P__PP_O_ jtwc_sh SH521963 -22.5000 160.900 20 -1 -22.3840 160.909 1000 -22.4346 160.875 TC 27 1001 -22.4905 160.868 1 20 -22.4000 161.000 TC 25 1001 3 20
1963128S24158 1963 43 SP MM NOT_NAMED 1963-05-09 21:00:00 TS -22.3333 160.946 main 391 391 P_____P__PP_P_ SH521963 -22.3849 160.902 22 -1 -22.2660 160.968 1000 -22.3104 160.947 TC 28 1000 -22.3685 160.849 1 23 -22.2850 161.107 TC 27 1000 2 9
1963128S24158 1963 43 SP MM NOT_NAMED 1963-05-09 23:00:00 TS -22.2683 160.942 1000 bom main 391 385 P_____O__PO_P_ SH521963 -22.3250 160.847 24 -1 -22.2000 161.000 1000 4 -22.2349 160.983 TC 29 1000 -22.3000 160.800 1 25 -22.2250 161.172 TC 29 1000 2 0
1963128S24158 1963 43 SP MM NOT_NAMED 1963-05-10 00:00:00 TS -22.2436 160.927 main 385 385 O_____P__OP_O_ jtwc_sh SH521963 -22.3000 160.800 25 -1 -22.1794 161.020 1000 -22.2000 161.000 TC 30 1000 -22.2820 160.745 1 25 -22.2000 161.200 TC 30 1000 2 305
1963128S24158 1963 43 SP MM NOT_NAMED 1963-05-10 03:00:00 TS -22.1924 160.831 main 393 393 P_____P__PP_P_ SH521963 -22.2502 160.550 27 -1 -22.1367 161.066 1000 -22.1268 161.044 TC 28 1000 -22.2478 160.518 1 28 -22.1425 161.257 TC 27 1000 2 297
1963128S24158 1963 43 SP MM NOT_NAMED 1963-05-10 06:00:00 TS -22.1479 160.726 main 396 396 O_____P__PP_O_ jtwc_sh SH521963 -22.2000 160.300 30 -1 -22.1032 161.106 1001 -22.0648 161.077 TC 27 1001 -22.2192 160.275 1 30 -22.1000 161.300 TC 25 1001 2 306
1963128S24158 1963 43 SP MM NOT_NAMED 1963-05-10 09:00:00 TS -22.0886 160.678 main 396 391 P_____P__PP_P_ SH521963 -22.1223 160.167 32 -1 -22.0540 161.155 1001 -21.9955 161.122 TC 26 1001 -22.1653 160.114 1 33 -22.0725 161.342 TC 25 1001 1 0
1963128S24158 1963 43 SP MM NOT_NAMED 1963-05-10 11:00:00 TS -22.0274 160.696 1002 bom main 391 391 P_____O__PO_P_ SH521963 -22.0473 160.166 34 0 -22.0000 161.200 1002 -21.9359 161.169 TC 25 1001 -22.1000 160.100 2 35 -22.0338 161.378 TC 25 1001 2 23
1963128S24158 1963 43 SP MM NOT_NAMED 1963-05-10 12:00:00 TS -21.9857 160.727 main 391 362 O_____P__OP_O_ jtwc_sh SH521963 -22.0000 160.200 35 0 -21.9644 161.214 1002 -21.9000 161.200 TC 25 1002 -22.0497 160.145 2 34 -22.0000 161.400 TC 25 1002 4 39
1963128S24158 1963 43 SP MM NOT_NAMED 1963-05-10 15:00:00 TS -21.8211 160.880 main 362 334 P_____P__PP_P_ SH521963 -21.8224 160.417 35 0 -21.8326 161.266 1002 -21.7736 161.294 TC 25 1002 -21.8608 160.400 2 33 -21.8150 161.485 TC 25 1002 5 45
1963128S24158 1963 43 SP MM NOT_NAMED 1963-05-10 18:00:00 TS -21.6183 161.130 main 334 296 O_____P__PP_O_ jtwc_sh SH521963 -21.6000 160.800 35 0 -21.6636 161.359 1002 -21.6167 161.429 TC 25 1002 -21.6294 160.790 2 31 -21.6000 161.600 TC 25 1002 7 52
1963128S24158 1963 43 SP MM NOT_NAMED 1963-05-10 21:00:00 TS -21.4064 161.442 main 296 263 P_____P__PP_P_ SH521963 -21.3576 161.270 32 -1 -21.4577 161.528 1002 -21.4265 161.625 TC 25 1002 -21.3741 161.264 2 30 -21.4648 161.697 TC 25 1002 8 55
1963128S24158 1963 43 SP MM NOT_NAMED 1963-05-10 23:00:00 TS -21.2527 161.693 1002 bom main 263 249 P_____O__PO_P_ SH521963 -21.1860 161.623 30 -1 -21.3000 161.700 1002 -21.2797 161.798 TC 25 1002 -21.2000 161.600 1 29 -21.3644 161.813 TC 25 1002 9 57
1963128S24158 1963 43 SP MM NOT_NAMED 1963-05-11 00:00:00 TS -21.1731 161.829 main 249 189 O_____P__OP_O_ jtwc_sh SH521963 -21.1000 161.800 30 -1 -21.2159 161.819 1002 -21.2000 161.900 TC 25 1002 -21.1226 161.757 1 27 -21.3000 161.900 TC 25 1002 10 59
1963128S24158 1963 43 SP MM NOT_NAMED 1963-05-11 03:00:00 TS -20.9134 162.287 main 189 129 P_____P__PP_P_ SH521963 -20.8499 162.307 27 -1 -20.9353 162.257 1002 -20.9367 162.292 TC 25 1002 -20.8860 162.260 1 21 -21.0226 162.298 TC 25 1002 10 59
1963128S24158 1963 43 SP MM NOT_NAMED 1963-05-11 06:00:00 TS -20.6342 162.784 main 129 73 O_____P__PP_O_ jtwc_sh SH521963 -20.6000 162.800 25 -1 -20.6265 162.765 1002 -20.6386 162.756 TC 25 1002 -20.6399 162.781 1 15 -20.7000 162.800 TC 25 1002 11 59
1963128S24158 1963 43 SP MM NOT_NAMED 1963-05-11 09:00:00 TS -20.3517 163.277 main 73 43 P_____P__PP_P_ SH521963 -20.3499 163.265 25 -1 -20.3081 163.282 1002 -20.3210 163.242 TC 25 1002 -20.3810 163.288 1 9 -20.4001 163.323 TC 25 1002 11 58
1963128S24158 1963 43 SP MM NOT_NAMED 1963-05-11 11:00:00 TS -20.1622 163.587 1002 bom main 43 38 P_____O__PO_P_ SH521963 -20.1833 163.558 25 -1 -20.1000 163.600 1002 -20.1064 163.553 TC 25 1002 -20.2000 163.600 1 5 -20.2001 163.654 TC 25 1002 10 57
1963128S24158 1963 43 SP MM NOT_NAMED 1963-05-11 12:00:00 TS -20.0725 163.731 main 38 30 O_____P__OP_O_ jtwc_sh SH521963 -20.1000 163.700 25 -1 -20.0159 163.737 1002 -20.0000 163.700 TC 25 1002 -20.1188 163.748 1 -20.1000 163.800 TC 25 1002 9 55
1963128S24158 1963 43 SP MM NOT_NAMED 1963-05-11 15:00:00 TS -19.8163 164.124 main 44 44 P_____P__PP_P_ SH521963 -19.8649 164.122 22 -1 -19.7739 164.118 1003 -19.7323 164.097 TC 22 1003 -19.8697 164.162 1 -19.7922 164.122 TC 22 1003 9 53
1963128S24158 1963 43 SP MM NOT_NAMED 1963-05-11 18:00:00 TS -19.5459 164.472 main 88 88 O_____P__PP_O_ jtwc_sh SH521963 -19.6000 164.500 20 -1 -19.5231 164.453 1004 -19.4598 164.454 TC 20 1004 -19.5926 164.528 1 -19.5000 164.400 TC 20 1004 8 49
1963128S24158 1963 43 SP MM NOT_NAMED 1963-05-11 21:00:00 TS -19.2561 164.797 main 116 116 P_____P__PP_P_ SH521963 -19.3024 164.837 20 -1 -19.2320 164.739 1005 -19.1574 164.760 TC 17 1005 -19.2622 164.834 1 -19.2801 164.772 TC 17 1005 9 42
1963128S24158 1963 43 SP MM NOT_NAMED 1963-05-11 23:00:00 TS -19.0228 164.979 1006 bom main 154 154 P_____O__PO_P_ SH521963 -19.0504 165.022 20 -1 -19.0000 164.900 1006 -18.9268 164.928 TC 15 1005 -19.0000 165.000 7 -19.1093 165.004 TC 15 1005 9 34
1963128S24158 1963 43 SP MM NOT_NAMED 1963-05-12 00:00:00 TS -18.8848 165.063 main 168 168 O_____P__OP_O_ jtwc_sh SH521963 -18.9000 165.100 20 -1 -18.8634 164.990 1005 -18.8000 165.000 TC 15 1006 -18.8451 165.087 7 -19.0000 165.100 TC 15 1006 11 23
1963128S24158 1963 43 SP MM NOT_NAMED 1963-05-12 03:00:00 TS -18.3797 165.266 main 228 228 P_____P__PP_P_ SH521963 -18.3299 165.287 20 -1 -18.4041 165.227 1005 -18.3531 165.214 TC 16 1005 -18.3235 165.303 7 -18.5374 165.280 TC 17 1005 11 17
1963128S24158 1963 43 SP MM NOT_NAMED 1963-05-12 06:00:00 TS -17.8158 165.401 main 257 217 O_____P__PP_O_ jtwc_sh SH521963 -17.7000 165.400 20 -1 -17.8925 165.401 1004 -17.8520 165.358 TC 17 1005 -17.7505 165.447 7 -18.0000 165.400 TC 20 1005 11 11
1963128S24158 1963 43 SP MM NOT_NAMED 1963-05-12 09:00:00 TS -17.2678 165.501 main 217 192 P_____P__PP_P_ SH521963 -17.1275 165.487 17 -1 -17.3567 165.493 1004 -17.3250 165.423 TC 18 1004 -17.1698 165.509 7 -17.5000 165.603 TC 20 1004 11 7
1963128S24158 1963 43 SP MM NOT_NAMED 1963-05-12 11:00:00 TS -16.9130 165.520 1004 bom main 192 185 P_____O__PO_P_ SH521963 -16.7693 165.506 15 -1 -17.0000 165.500 1004 -16.9730 165.418 TC 19 1004 -16.8000 165.500 7 -17.1667 165.690 TC 20 1004 11 0
1963128S24158 1963 43 SP MM NOT_NAMED 1963-05-12 12:00:00 TS -16.7429 165.517 main 178 154 O_____P__OP_O_ jtwc_sh SH521963 -16.6000 165.500 15 -1 -16.8258 165.502 1004 -16.8000 165.400 TC 20 1004 -16.6315 165.500 7 -17.0000 165.700 TC 20 1004 10 354
1963128S24158 1963 43 SP MM NOT_NAMED 1963-05-12 15:00:00 TS -16.2497 165.449 main 156 144 P_____P__PP_P_ SH521963 -16.1274 165.460 15 -1 -16.3001 165.445 1004 -16.2971 165.339 TC 18 1004 -16.1460 165.443 7 -16.5001 165.545 TC 20 1004 10 347
1963128S24158 1963 43 SP MM NOT_NAMED 1963-05-12 18:00:00 TS -15.7800 165.278 main 146 143 O_____P__PP_O_ jtwc_sh SH521963 -15.7000 165.300 15 -1 -15.7847 165.289 1005 -15.8043 165.187 TC 17 1005 -15.6908 165.291 7 -16.0000 165.300 TC 20 1005 10 337
1963128S24158 1963 43 SP MM NOT_NAMED 1963-05-12 21:00:00 TS -15.3269 165.041 main 170 167 P_____P__PP_P_ SH521963 -15.2924 165.018 12 -1 -15.2986 165.031 1006 -15.3344 164.942 TC 16 1006 -15.2661 165.034 7 -15.4772 165.203 TC 17 1006 10 329
1963128S24158 1963 43 SP MM NOT_NAMED 1963-05-12 23:00:00 TS -15.0418 164.821 1007 bom main 184 184 P_____O__PO_P_ SH521963 -15.0306 164.753 10 -1 -15.0000 164.800 1007 -15.0401 164.725 TC 15 1006 -15.0000 164.800 7 -15.1494 165.093 TC 15 1006 11 321
1963128S24158 1963 43 SP MM NOT_NAMED 1963-05-13 00:00:00 TS -14.9029 164.688 main 193 193 O_____P__OP_O_ jtwc_sh SH521963 -14.9000 164.600 10 -1 -14.8549 164.668 1007 -14.9000 164.600 TC 15 1007 -14.8628 164.662 7 -15.0000 165.000 TC 15 1007 12 312
1963128S24158 1963 43 SP MM NOT_NAMED 1963-05-13 03:00:00 TS -14.5043 164.197 main 249 249 P_____P__PP_P_ SH521963 -14.4851 164.080 10 -1 -14.4487 164.194 1007 -14.5094 164.162 TC 15 1007 -14.4701 164.163 7 -14.6277 164.502 TC 15 1007 13 307
1963128S24158 1963 43 SP MM NOT_NAMED 1963-05-13 06:00:00 TS -14.1422 163.629 main 322 322 O_____P__PP_O_ jtwc_sh SH521963 -14.1000 163.500 10 -1 -14.0888 163.643 1007 -14.1541 163.649 TC 15 1007 -14.1101 163.583 7 -14.3000 163.900 TC 15 1007 13 302
1963128S24158 1963 43 SP MM NOT_NAMED 1963-05-13 09:00:00 TS -13.8088 163.065 main 347 316 P_____P__PP_P_ SH521963 -13.7700 162.935 10 -1 -13.7780 163.069 1007 -13.8217 163.086 TC 15 1007 -13.7891 162.983 7 -13.9274 163.385 TC 15 1007 13 300
1963128S24158 1963 43 SP MM NOT_NAMED 1963-05-13 11:00:00 TS -13.6126 162.700 1007 bom main 316 304 P_____O__PO_P_ SH521963 -13.5833 162.572 10 -1 -13.6000 162.700 1007 -13.6068 162.697 TC 15 1007 -13.6000 162.600 7 -13.6995 163.058 TC 15 1007 12 299
1963128S24158 1963 43 SP MM NOT_NAMED 1963-05-13 12:00:00 TS -13.5281 162.541 main 303 279 O_____P__OP_O_ jtwc_sh SH521963 -13.5000 162.400 10 -1 -13.5200 162.525 1007 -13.5000 162.500 TC 15 1007 -13.5136 162.420 7 -13.6000 162.900 TC 15 1007 10 297
1963128S24158 1963 43 SP MM NOT_NAMED 1963-05-13 15:00:00 TS -13.3126 162.083 main 279 257 P_____P___P_P_ SH521963 -13.2851 161.930 7 -1 -13.3121 162.036 1007 TC -13.2835 161.924 7 -13.3699 162.443 TC 15 1007 9 295
1963128S24158 1963 43 SP MM NOT_NAMED 1963-05-13 18:00:00 TS -13.1404 161.684 main 257 248 O_____P___P_O_ jtwc_sh SH521963 -13.1000 161.500 5 -1 -13.1410 161.591 1007 TC -13.0872 161.479 7 -13.2000 162.000 TC 15 1007 8 293
1963128S24158 1963 43 SP MM NOT_NAMED 1963-05-13 21:00:00 TS -12.9932 161.305 main 252 244 ______P___P_P_ SH521963 -1 -12.9929 161.172 1007 TC -12.9117 161.067 7 -13.0477 161.552 TC 15 1007 8 291
1963128S24158 1963 43 SP MM NOT_NAMED 1963-05-13 23:00:00 TS -12.8995 161.051 1007 bom main 247 247 ______O___O_P_ SH521963 -1 -12.9000 160.900 1007 TC -12.8000 160.800 7 -12.9490 161.251 TC 15 1007 4 295
1963128S24158 1963 43 SP MM NOT_NAMED 1963-05-14 00:00:00 TS -12.9000 161.100 main 247 ____________O_ -1 7 -12.9000 161.100 TC 15 1007 3 91

デジタル台風データ・検索

IBTrACS Databaseについて

本データベースは、米国NOAAが公開する1842年以降の世界の熱帯低気圧のベストトラックデータアーカイブInternational Best Track Archive for Climate Stewardship (IBTrACS)を、ウェブで閲覧しやすい形式に変換したものです。

最終更新日:2021-10-25